Flight Track Log - Related Links

Times and Time Zones

All times are in EDT time to prevent confusion due to time zone crossing. See the LAN438 flight status page for this flight to view local times or setup timezone preferences in your user account.

Time Position Orientation Groundspeed Altitude Reporting Facility
EDT Latitude Longitude Course Direction KTS MPH feet Rate Location/Type
Fri 07:26:08 AM -34.5730 -58.3860 112° Southeast 159 183 1,200  Level FlightAware ADS-B
Fri 07:26:28 AM -34.5680 -58.3680 71° East 186 214 1,600 1,231 Climbing FlightAware ADS-B
Fri 07:26:47 AM -34.5610 -58.3490 66° East 220 253 2,000 1,773 Climbing FlightAware ADS-B
Fri 07:27:12 AM -34.5470 -58.3190 60° Northeast 256 295 2,900 2,471 Climbing FlightAware ADS-B
Fri 07:27:21 AM -34.5380 -58.3120 33° Northeast 262 302 3,400 3,900 Climbing FlightAware ADS-B
Fri 07:27:32 AM -34.5240 -58.3060 19° North 265 305 4,200 4,105 Climbing FlightAware ADS-B
Fri 07:27:40 AM -34.5140 -58.3040 North 271 312 4,700 3,643 Climbing FlightAware ADS-B
Fri 07:28:00 AM -34.4900 -58.3150 339° North 283 326 5,900 3,429 Climbing FlightAware ADS-B
Fri 07:28:08 AM -34.4840 -58.3240 309° West 285 328 6,300 3,176 Climbing FlightAware ADS-B
Fri 07:28:17 AM -34.4800 -58.3350 294° West 287 330 6,800 4,000 Climbing FlightAware ADS-B
Fri 07:28:20 AM -34.4780 -58.3420 289° West 287 330 7,100 4,286 Climbing FlightAware ADS-B
Fri 07:28:24 AM -34.4780 -58.3490 270° West 287 330 7,300 3,517 Climbing FlightAware ADS-B
Fri 07:28:49 AM -34.4790 -58.3870 268° West 285 328 8,800 3,600 Climbing FlightAware ADS-B
Fri 07:29:24 AM -34.4730 -58.4440 277° West 289 333 10,900 2,704 Climbing FlightAware ADS-B
Fri 07:30:00 AM -34.4670 -58.5070 277° West 325 374 12,000 2,348 Climbing FlightAware ADS-B
Fri 07:30:33 AM -34.4630 -58.5660 275° West 332 382 13,600 2,912 Climbing FlightAware ADS-B
Fri 07:31:08 AM -34.4590 -58.6320 274° West 334 384 15,300 3,167 Climbing FlightAware ADS-B
Fri 07:31:45 AM -34.4540 -58.6990 275° West 327 376 17,400 3,123 Climbing FlightAware ADS-B
Fri 07:32:21 AM -34.4500 -58.7650 274° West 327 376 19,100 2,522 Climbing FlightAware ADS-B
Fri 07:32:54 AM -34.4460 -58.8270 274° West 336 387 20,300 2,149 Climbing FlightAware ADS-B
Fri 07:33:28 AM -34.4410 -58.8910 275° West 339 390 21,500 1,971 Climbing FlightAware ADS-B
Fri 07:34:04 AM -34.4360 -58.9600 275° West 348 400 22,600 1,917 Climbing FlightAware ADS-B
Fri 07:34:40 AM -34.4310 -59.0310 275° West 353 406 23,800 2,113 Climbing FlightAware ADS-B
Fri 07:35:15 AM -34.4260 -59.0980 275° West 350 403 25,100 2,057 Climbing FlightAware ADS-B
Fri 07:35:50 AM -34.4210 -59.1680 275° West 353 406 26,200 1,765 Climbing FlightAware ADS-B
Fri 07:36:23 AM -34.4170 -59.2310 274° West 356 410 27,100 1,543 Climbing FlightAware ADS-B
Fri 07:37:00 AM -34.4110 -59.3070 275° West 361 415 28,000 1,562 Climbing FlightAware ADS-B
Fri 07:37:36 AM -34.4060 -59.3790 275° West 362 417 29,000 1,917 Climbing FlightAware ADS-B
Fri 07:38:12 AM -34.4000 -59.4520 276° West 356 410 30,300 1,941 Climbing FlightAware ADS-B
Fri 07:38:44 AM -34.3950 -59.5150 275° West 352 405 31,200 1,543 Climbing FlightAware ADS-B
Fri 07:39:22 AM -34.3890 -59.5900 276° West 353 406 32,100 1,714 Climbing FlightAware ADS-B
Fri 07:39:54 AM -34.3850 -59.6520 274° West 342 394 33,200 1,676 Climbing FlightAware ADS-B
Fri 07:40:30 AM -34.3800 -59.7190 275° West 340 391 34,000 1,114 Climbing FlightAware ADS-B
Fri 07:41:04 AM -34.3740 -59.7840 276° West 342 394 34,500 1,437 Climbing FlightAware ADS-B
Fri 07:41:41 AM -34.3690 -59.8520 275° West 328 377 35,700 1,690 Climbing FlightAware ADS-B
Fri 07:42:15 AM -34.3640 -59.9130 276° West 320 368 36,500 845 Climbing FlightAware ADS-B
Fri 07:42:52 AM -34.3590 -59.9810 275° West 330 380 36,700 435 Climbing FlightAware ADS-B
Fri 07:43:24 AM -34.3540 -60.0390 276° West 333 383 37,000 716 Climbing FlightAware ADS-B
Fri 07:43:59 AM -34.3490 -60.1040 275° West 333 383 37,500 667 Climbing FlightAware ADS-B
Fri 07:44:36 AM -34.3430 -60.1740 276° West 335 386 37,800 411 Climbing FlightAware ADS-B
Fri 07:45:12 AM -34.3380 -60.2400 275° West 337 388 38,000 176 Climbing FlightAware ADS-B
Fri 07:45:44 AM -34.3330 -60.2990 276° West 337 388 38,000  Level FlightAware ADS-B
Fri 07:46:21 AM -34.3280 -60.3630 275° West 339 390 38,000  Level FlightAware ADS-B
Fri 07:46:54 AM -34.3220 -60.4320 276° West 339 390 38,000  Level FlightAware ADS-B
Fri 07:47:32 AM -34.3160 -60.5030 276° West 337 388 38,000  Level FlightAware ADS-B
Fri 07:48:08 AM -34.3100 -60.5710 276° West 336 387 38,000  Level FlightAware ADS-B
Fri 07:48:40 AM -34.3050 -60.6310 276° West 335 386 38,000  Level FlightAware ADS-B
Fri 07:49:16 AM -34.2990 -60.6980 276° West 335 386 38,000  Level FlightAware ADS-B
Fri 07:49:51 AM -34.2940 -60.7610 275° West 335 386 38,000  Level FlightAware ADS-B
Fri 07:50:22 AM -34.2890 -60.8180 276° West 336 387 38,000  Level FlightAware ADS-B
Fri 07:50:59 AM -34.2840 -60.8830 275° West 336 387 38,000  Level FlightAware ADS-B
Fri 07:51:43 AM -34.2760 -60.9660 277° West 337 388 38,000  Level FlightAware ADS-B
Fri 07:52:18 AM -34.2700 -61.0350 276° West 340 391 38,000  Level FlightAware ADS-B
Fri 07:52:48 AM -34.2650 -61.0950 276° West 341 392 38,000  Level FlightAware ADS-B
Fri 07:53:28 AM -34.2590 -61.1650 276° West 342 394 38,000  Level FlightAware ADS-B
Fri 07:54:03 AM -34.2520 -61.2380 277° West 343 395 38,000  Level FlightAware ADS-B
Fri 07:54:38 AM -34.2460 -61.3030 276° West 343 395 38,000  Level FlightAware ADS-B
Fri 07:55:08 AM -34.2410 -61.3540 277° West 343 395 38,000  Level FlightAware ADS-B
Fri 07:55:53 AM -34.2330 -61.4470 276° West 342 394 38,000  Level FlightAware ADS-B
Fri 07:56:28 AM -34.2270 -61.5110 276° West 342 394 38,000  Level FlightAware ADS-B
Fri 07:57:24 AM -34.2180 -61.6100 276° West 342 394 38,000  Level FlightAware ADS-B
Fri 07:58:00 AM -34.2130 -61.6690 276° West 342 394 38,000  Level FlightAware ADS-B
Fri 07:58:36 AM -34.2080 -61.7270 276° West 342 394 38,000  Level FlightAware ADS-B
Fri 07:59:12 AM -34.2030 -61.7850 276° West 342 394 38,000  Level FlightAware ADS-B
Fri 07:59:48 AM -34.1980 -61.8430 276° West 342 394 38,000  Level FlightAware ADS-B
Fri 08:00:24 AM -34.1930 -61.9020 276° West 342 394 38,000  Level FlightAware ADS-B
Fri 08:01:01 AM -34.1880 -61.9610 276° West 342 394 38,000  Level FlightAware ADS-B
Fri 08:01:37 AM -34.1820 -62.0200 277° West 342 394 38,000  Level FlightAware ADS-B
Fri 08:02:14 AM -34.1770 -62.0790 276° West 342 394 38,000  Level FlightAware ADS-B
Fri 08:02:50 AM -34.1720 -62.1380 276° West 342 394 38,000  Level FlightAware ADS-B
Fri 08:03:26 AM -34.1670 -62.1960 276° West 342 394 38,000  Level FlightAware ADS-B
Fri 08:04:02 AM -34.1620 -62.2540 276° West 342 394 38,000  Level FlightAware ADS-B
Fri 08:04:38 AM -34.1570 -62.3120 276° West 342 394 38,000  Level FlightAware ADS-B
Fri 08:05:14 AM -34.1520 -62.3700 276° West 342 394 38,000  Level FlightAware ADS-B
Fri 08:05:50 AM -34.1470 -62.4290 276° West 342 394 38,000  Level FlightAware ADS-B
Fri 08:06:26 AM -34.1420 -62.4870 276° West 342 394 38,000  Level FlightAware ADS-B
Fri 08:09:00 AM -34.1281 -62.7304 274° West  Level Estimated
Fri 08:10:00 AM -34.1226 -62.8252 274° West  Level Estimated
Fri 08:11:00 AM -34.1170 -62.9201 274° West  Level Estimated
Fri 08:12:00 AM -34.1113 -63.0149 274° West  Level Estimated
Fri 08:12:06 AM -34.0490 -63.2920 274° West 353 406 38,000  Level FlightAware ADS-B
Fri 08:12:46 AM -34.0400 -63.3800 277° West 353 406 38,000  Level FlightAware ADS-B
Fri 08:13:21 AM -34.0340 -63.4380 277° West 353 406 38,000  Level FlightAware ADS-B
Fri 08:14:09 AM -34.0250 -63.5180 278° West 353 406 38,000  Level FlightAware ADS-B
Fri 08:14:45 AM -34.0190 -63.5780 277° West 353 406 38,000  Level FlightAware ADS-B
Fri 08:15:21 AM -34.0130 -63.6380 277° West 353 406 38,000  Level FlightAware ADS-B
Fri 08:15:57 AM -34.0070 -63.6980 277° West 353 406 38,000  Level FlightAware ADS-B
Fri 08:16:33 AM -34.0010 -63.7570 277° West 353 406 38,000  Level FlightAware ADS-B
Fri 08:17:09 AM -33.9950 -63.8170 277° West 353 406 38,000  Level FlightAware ADS-B
Fri 08:17:45 AM -33.9890 -63.8770 277° West 353 406 38,000  Level FlightAware ADS-B
Fri 08:18:21 AM -33.9830 -63.9370 277° West 353 406 38,000  Level FlightAware ADS-B
Fri 08:18:57 AM -33.9770 -63.9970 277° West 353 406 38,000  Level FlightAware ADS-B
Fri 08:19:33 AM -33.9710 -64.0560 277° West 353 406 38,000  Level FlightAware ADS-B
Fri 08:20:10 AM -33.9640 -64.1180 278° West 353 406 38,000  Level FlightAware ADS-B
Fri 08:20:46 AM -33.9580 -64.1780 277° West 353 406 38,000  Level FlightAware ADS-B
Fri 08:21:22 AM -33.9520 -64.2380 277° West 353 406 38,000  Level FlightAware ADS-B
Fri 08:21:59 AM -33.9460 -64.2990 277° West 353 406 38,000  Level FlightAware ADS-B
Fri 08:23:57 AM -33.8750 -64.6850 274° West 355 409 38,000  Level FlightAware ADS-B
Fri 08:24:00 AM -33.9347 -64.4898 274° West  Level Estimated
Fri 08:24:29 AM -33.8630 -64.7430 284° West 353 406 38,000  Level FlightAware ADS-B
Fri 08:25:11 AM -33.8480 -64.8160 284° West 352 405 38,000  Level FlightAware ADS-B
Fri 08:25:47 AM -33.8360 -64.8740 284° West 352 405 38,000  Level FlightAware ADS-B
Fri 08:26:25 AM -33.8170 -64.9650 284° West 352 405 38,000  Level FlightAware ADS-B
Fri 08:26:55 AM -33.8050 -65.0230 284° West 352 405 38,000  Level FlightAware ADS-B
Fri 08:27:33 AM -33.7890 -65.0960 285° West 354 407 38,000  Level FlightAware ADS-B
Fri 08:28:07 AM -33.7760 -65.1610 284° West 355 409 38,000  Level FlightAware ADS-B
Fri 08:28:43 AM -33.7610 -65.2280 285° West 358 412 38,000  Level FlightAware ADS-B
Fri 08:29:19 AM -33.7470 -65.2970 284° West 360 414 38,000  Level FlightAware ADS-B
Fri 08:29:55 AM -33.7320 -65.3670 284° West 363 418 38,000  Level FlightAware ADS-B
Fri 08:30:27 AM -33.7180 -65.4280 285° West 365 420 38,000  Level FlightAware ADS-B
Fri 08:31:05 AM -33.7010 -65.4980 286° West 366 421 38,000  Level FlightAware ADS-B
Fri 08:31:41 AM -33.6870 -65.5580 286° West 366 421 38,000  Level FlightAware ADS-B
Fri 08:32:17 AM -33.6720 -65.6180 287° West 366 421 38,000  Level FlightAware ADS-B
Fri 08:32:53 AM -33.6580 -65.6770 286° West 366 421 38,000  Level FlightAware ADS-B
Fri 08:33:29 AM -33.6440 -65.7370 286° West 366 421 38,000  Level FlightAware ADS-B
Fri 08:34:05 AM -33.6290 -65.7970 287° West 366 421 38,000  Level FlightAware ADS-B
Fri 08:34:41 AM -33.6150 -65.8570 286° West 366 421 38,000  Level FlightAware ADS-B
Fri 08:35:17 AM -33.6010 -65.9170 286° West 366 421 38,000  Level FlightAware ADS-B
Fri 08:35:53 AM -33.5870 -65.9760 286° West 366 421 38,000  Level FlightAware ADS-B
Fri 08:36:21 AM -33.5420 -66.1280 290° West 368 423 38,000  Level FlightAware ADS-B
Fri 08:36:58 AM -33.5260 -66.1920 287° West 368 423 38,000  Level FlightAware ADS-B
Fri 08:37:34 AM -33.5120 -66.2520 286° West 368 423 38,000  Level FlightAware ADS-B
Fri 08:38:10 AM -33.4970 -66.3120 287° West 368 423 38,000  Level FlightAware ADS-B
Fri 08:38:46 AM -33.4830 -66.3720 286° West 368 423 38,000  Level FlightAware ADS-B
Fri 08:39:22 AM -33.4690 -66.4320 286° West 368 423 38,000  Level FlightAware ADS-B
Fri 08:39:58 AM -33.4540 -66.4920 287° West 368 423 38,000  Level FlightAware ADS-B
Fri 08:40:34 AM -33.4400 -66.5520 286° West 368 423 38,000  Level FlightAware ADS-B
Fri 08:41:13 AM -33.4240 -66.6170 286° West 368 423 38,000  Level FlightAware ADS-B
Fri 08:41:50 AM -33.4100 -66.6790 285° West 368 423 38,000  Level FlightAware ADS-B
Fri 08:42:26 AM -33.3950 -66.7390 287° West 368 423 38,000  Level FlightAware ADS-B
Fri 08:43:02 AM -33.3810 -66.7990 286° West 368 423 38,000  Level FlightAware ADS-B
Fri 08:43:38 AM -33.3670 -66.8590 286° West 368 423 38,000  Level FlightAware ADS-B
Fri 08:44:16 AM -33.3510 -66.9220 287° West 368 423 38,000  Level FlightAware ADS-B
Fri 08:44:52 AM -33.3370 -66.9820 286° West 368 423 38,000  Level FlightAware ADS-B
Fri 08:45:29 AM -33.3220 -67.0430 286° West 368 423 38,000  Level FlightAware ADS-B
Fri 08:46:06 AM -33.3080 -67.1050 285° West 368 423 38,000  Level FlightAware ADS-B
Fri 08:47:28 AM -33.2010 -67.4370 291° West 369 425 38,000  Level FlightAware ADS-B
Fri 08:48:02 AM -33.1840 -67.5020 287° West 369 425 38,000  Level FlightAware ADS-B
Fri 08:48:38 AM -33.1670 -67.5670 287° West 368 423 38,000  Level FlightAware ADS-B
Fri 08:49:06 AM -33.1530 -67.6190 288° West 368 423 38,000  Level FlightAware ADS-B
Fri 08:49:59 AM -33.1260 -67.7210 288° West 368 423 38,000  Level FlightAware ADS-B
Fri 08:50:32 AM -33.1070 -67.7890 288° West 372 428 38,000  Level FlightAware ADS-B
Fri 08:51:07 AM -33.0870 -67.8640 288° West 379 436 38,000  Level FlightAware ADS-B
Fri 08:51:41 AM -33.0690 -67.9300 288° West 383 441 38,000 86 Level FlightAware ADS-B
Fri 08:52:17 AM -33.0490 -68.0030 288° West 383 441 38,100  Climbing FlightAware ADS-B
Fri 08:52:51 AM -33.0300 -68.0720 288° West 385 443 38,000 -82 Descending FlightAware ADS-B
Fri 08:53:30 AM -33.0090 -68.1490 288° West 382 440 38,000  Level FlightAware ADS-B
Fri 08:54:01 AM -32.9920 -68.2120 288° West 383 441 38,000  Level FlightAware ADS-B
Fri 08:54:38 AM -32.9730 -68.2820 288° West 381 438 38,000  Level FlightAware ADS-B
Fri 08:55:14 AM -32.9520 -68.3580 288° West 382 440 38,000  Level FlightAware ADS-B
Fri 08:55:44 AM -32.9360 -68.4160 288° West 380 437 38,000  Level FlightAware ADS-B
Fri 08:56:20 AM -32.9170 -68.4860 288° West 383 441 38,000  Level FlightAware ADS-B
Fri 08:56:52 AM -32.8980 -68.5520 289° West 385 443 38,000  Level FlightAware ADS-B
Fri 08:57:30 AM -32.8780 -68.6260 288° West 387 445 38,000  Level FlightAware ADS-B
Fri 08:58:07 AM -32.8570 -68.7020 288° West 390 449 38,000  Level FlightAware ADS-B
Fri 08:58:44 AM -32.8410 -68.7780 284° West 393 452 38,000  Level FlightAware ADS-B
Fri 08:59:15 AM -32.8360 -68.8490 275° West 395 455 38,000  Level FlightAware ADS-B
Fri 08:59:51 AM -32.8380 -68.9250 268° West 400 460 38,000  Level FlightAware ADS-B
Fri 09:00:26 AM -32.8420 -69.0020 266° West 400 460 38,000  Level FlightAware ADS-B
Fri 09:01:02 AM -32.8450 -69.0790 267° West 401 461 38,000  Level FlightAware ADS-B
Fri 09:01:37 AM -32.8490 -69.1590 267° West 402 463 38,000  Level FlightAware ADS-B
Fri 09:02:13 AM -32.8530 -69.2400 267° West 404 465 38,000  Level FlightAware ADS-B
Fri 09:02:47 AM -32.8560 -69.3140 267° West 404 465 38,000 -405 Level FlightAware ADS-B
Fri 09:03:27 AM -32.8590 -69.3980 268° West 408 470 37,500 -1,760 Descending FlightAware ADS-B
Fri 09:04:02 AM -32.8630 -69.4840 267° West 412 474 35,800 -2,320 Descending FlightAware ADS-B
Fri 09:04:42 AM -32.8670 -69.5700 267° West 398 458 34,600 -2,143 Descending FlightAware ADS-B
Fri 09:05:12 AM -32.8690 -69.6360 268° West 395 455 33,300 -2,492 Descending FlightAware ADS-B
Fri 09:05:47 AM -32.8720 -69.7090 267° West 394 453 31,900 -1,971 Descending FlightAware ADS-B
Fri 09:06:22 AM -32.8760 -69.7850 266° West 371 427 31,000 -957 Descending FlightAware ADS-B
Fri 09:06:56 AM -32.8780 -69.8430 268° West 370 426 30,800 -171 Descending FlightAware ADS-B
Fri 09:07:32 AM -32.8810 -69.9050 267° West 370 426 30,800 -3,214 Level FlightAware ADS-B
Fri 09:08:20 AM -32.8830 -69.9950 268° West 361 415 26,300 -4,636 Descending FlightAware ADS-B
Fri 09:09:00 AM -32.8750 -70.0950 275° West 354 407 24,000 -2,000 Descending FlightAware ADS-B
Fri 09:09:32 AM -32.8700 -70.1480 276° West 350 403 23,900 -87 Descending FlightAware ADS-B
Fri 09:10:09 AM -32.8650 -70.2080 276° West 350 403 23,900  Level FlightAware ADS-B
Fri 09:10:43 AM -32.8600 -70.2640 276° West 350 403 23,900  Level FlightAware ADS-B
Fri 09:11:30 AM -32.8530 -70.3400 276° West 350 403 23,900 -3,793 Level FlightAware ADS-B
Fri 09:12:10 AM -32.8440 -70.4340 276° West 324 373 18,400 -4,342 Descending FlightAware ADS-B
Fri 09:12:46 AM -32.8390 -70.4880 276° West 324 373 18,400  Level FlightAware ADS-B
Fri 09:13:22 AM -32.8340 -70.5430 276° West 324 373 18,400  Level FlightAware ADS-B
Fri 09:13:59 AM -32.8290 -70.5980 276° West 324 373 18,400  Level FlightAware ADS-B
Fri 09:14:36 AM -32.8240 -70.6540 276° West 324 373 18,400  Level FlightAware ADS-B
Fri 09:15:12 AM -32.8200 -70.7090 275° West 324 373 18,400 -2,513 Level FlightAware ADS-B
Fri 09:17:00 AM -32.9608 -70.7278 186° South  Level Estimated
Fri 09:18:00 AM -33.0390 -70.7382 186° South  Level Estimated
Fri 09:19:00 AM -33.1172 -70.7487 186° South  Level Estimated
Fri 09:19:56 AM -33.1760 -70.7980 186° South 196 226 5,000  Level FlightAware ADS-B
Fri 09:20:00 AM -33.1954 -70.7592 186° South  Level Estimated
Fri 09:20:17 AM -33.1910 -70.7970 177° South 185 213 4,900  Level FlightAware ADS-B
Fri 09:20:34 AM -33.2050 -70.7960 177° South 175 201 4,700 -682 Descending FlightAware ADS-B
Fri 09:21:01 AM -33.2250 -70.7950 178° South 167 192 4,400 -667 Descending FlightAware ADS-B
Fri 09:21:19 AM -33.2340 -70.7940 175° South 167 192 4,200 -1,167 Descending FlightAware ADS-B
Fri 09:21:37 AM -33.2540 -70.7930 178° South 165 190 3,700 -822 Descending FlightAware ADS-B
Fri 09:22:32 AM -33.2850 -70.7920 178° South 150 173 3,200 -759 Descending FlightAware ADS-B
Fri 09:23:04 AM -33.3170 -70.7900 177° South 142 163 2,600 -1,080 Descending FlightAware ADS-B
Fri 09:23:22 AM -33.3290 -70.7890 176° South 140 161 2,300 -400 Descending FlightAware ADS-B
Fri 09:23:49 AM -33.3440 -70.7880 177° South 140 161 2,300  Level FlightAware ADS-B
Fri 09:25:32 AM -33.3970 -70.7870 179° South 140 161 -1,340 Descending FlightAware ADS-B
Fri 09:25:54 AM -33.3980 -70.7880 220° Southwest 140 161  Level FlightAware ADS-B
Fri 09:26:17 AM -33.3960 -70.7890 337° Northwest 140 161  Level FlightAware ADS-B
Fri 09:26:45 AM -33.4050 -70.7740 126° Southeast 140 161  Level FlightAware ADS-B
Fri 09:29:00 AM -33.3833 -70.7667 270° West  Level FlightAware Approximate
Fri 09:30:00 AM -33.3930 -70.7858 270° West  Level Estimated
Fri 09:31:00 AM -33.3930 -70.7858 270° West  Level Estimated
Fri 09:32:00 AM -33.3930 -70.7858 270° West  Level Estimated
Fri 09:33:00 AM -33.3930 -70.7858 270° West  Level Estimated
Fri 09:34:00 AM -33.3930 -70.7858 270° West  Level Estimated
Fri 09:35:00 AM -33.3930 -70.7858 270° West  Level Estimated
Fri 09:36:00 AM -33.3930 -70.7858 270° West  Level Estimated

Login

Don't have an account? Register now (free) for customized features, flight alerts, and more!